sensor_id;sensor_type;location;lat;lon;timestamp;pressure;altitude;pressure_sealevel;temperature;humidity
55590;BME280;41452;42.780;23.116;2023-04-25T00:01:20;93549.56;;;9.62;100.00
55590;BME280;41452;42.780;23.116;2023-04-25T00:03:47;93571.97;;;9.92;100.00
55590;BME280;41452;42.780;23.116;2023-04-25T00:06:12;93603.66;;;10.12;100.00
55590;BME280;41452;42.780;23.116;2023-04-25T00:08:37;93576.03;;;10.04;100.00
55590;BME280;41452;42.780;23.116;2023-04-25T00:11:03;93553.06;;;9.89;100.00
55590;BME280;41452;42.780;23.116;2023-04-25T00:13:29;93607.72;;;10.25;100.00
55590;BME280;41452;42.780;23.116;2023-04-25T00:15:54;93598.78;;;10.21;100.00
55590;BME280;41452;42.780;23.116;2023-04-25T00:18:21;93609.31;;;10.26;100.00
55590;BME280;41452;42.780;23.116;2023-04-25T00:20:47;93607.50;;;10.26;100.00
55590;BME280;41452;42.780;23.116;2023-04-25T00:23:16;93569.19;;;10.03;100.00
55590;BME280;41452;42.780;23.116;2023-04-25T00:25:45;93603.22;;;10.20;100.00
55590;BME280;41452;42.780;23.116;2023-04-25T00:28:12;93599.63;;;10.26;100.00
55590;BME280;41452;42.780;23.116;2023-04-25T00:30:38;93601.69;;;10.24;100.00
55590;BME280;41452;42.780;23.116;2023-04-25T00:33:04;93600.13;;;10.23;100.00
55590;BME280;41452;42.780;23.116;2023-04-25T00:35:30;93553.16;;;10.00;100.00
55590;BME280;41452;42.780;23.116;2023-04-25T00:37:55;93550.44;;;9.89;100.00
55590;BME280;41452;42.780;23.116;2023-04-25T00:40:21;93598.53;;;10.22;100.00
55590;BME280;41452;42.780;23.116;2023-04-25T00:42:47;93595.13;;;10.22;100.00
55590;BME280;41452;42.780;23.116;2023-04-25T00:45:14;93585.91;;;10.19;100.00
55590;BME280;41452;42.780;23.116;2023-04-25T00:47:41;93571.88;;;10.08;100.00
55590;BME280;41452;42.780;23.116;2023-04-25T00:50:08;93562.50;;;9.90;100.00
55590;BME280;41452;42.780;23.116;2023-04-25T00:52:33;93542.75;;;9.83;100.00
55590;BME280;41452;42.780;23.116;2023-04-25T00:54:59;93583.78;;;10.16;100.00
55590;BME280;41452;42.780;23.116;2023-04-25T00:57:24;93577.25;;;10.19;100.00
55590;BME280;41452;42.780;23.116;2023-04-25T00:59:51;93582.13;;;10.10;100.00
55590;BME280;41452;42.780;23.116;2023-04-25T01:02:17;93576.56;;;10.06;100.00
55590;BME280;41452;42.780;23.116;2023-04-25T01:04:43;93579.69;;;10.03;100.00
55590;BME280;41452;42.780;23.116;2023-04-25T01:07:09;93567.88;;;10.01;100.00
55590;BME280;41452;42.780;23.116;2023-04-25T01:09:35;93582.25;;;9.98;100.00
55590;BME280;41452;42.780;23.116;2023-04-25T01:12:01;93560.66;;;9.91;100.00
55590;BME280;41452;42.780;23.116;2023-04-25T01:14:26;93564.56;;;9.88;100.00
55590;BME280;41452;42.780;23.116;2023-04-25T01:16:52;93558.78;;;9.86;100.00
55590;BME280;41452;42.780;23.116;2023-04-25T01:19:19;93567.69;;;9.85;100.00
55590;BME280;41452;42.780;23.116;2023-04-25T01:21:45;93527.63;;;9.46;100.00
55590;BME280;41452;42.780;23.116;2023-04-25T01:24:10;93537.94;;;9.52;100.00
55590;BME280;41452;42.780;23.116;2023-04-25T01:26:36;93548.41;;;9.52;100.00
55590;BME280;41452;42.780;23.116;2023-04-25T01:29:04;93530.22;;;9.24;100.00
55590;BME280;41452;42.780;23.116;2023-04-25T01:31:30;93571.84;;;9.42;100.00
55590;BME280;41452;42.780;23.116;2023-04-25T01:33:56;93575.03;;;9.44;100.00
55590;BME280;41452;42.780;23.116;2023-04-25T01:36:22;93560.81;;;9.40;100.00
55590;BME280;41452;42.780;23.116;2023-04-25T01:38:47;93557.97;;;9.25;100.00
55590;BME280;41452;42.780;23.116;2023-04-25T01:41:14;93561.34;;;9.20;100.00
55590;BME280;41452;42.780;23.116;2023-04-25T01:43:40;93539.84;;;9.01;100.00
55590;BME280;41452;42.780;23.116;2023-04-25T01:46:05;93558.03;;;9.08;100.00
55590;BME280;41452;42.780;23.116;2023-04-25T01:48:31;93554.19;;;8.99;100.00
55590;BME280;41452;42.780;23.116;2023-04-25T01:50:56;93518.50;;;8.75;100.00
55590;BME280;41452;42.780;23.116;2023-04-25T01:53:22;93550.00;;;8.98;100.00
55590;BME280;41452;42.780;23.116;2023-04-25T01:55:47;93514.06;;;8.59;100.00
55590;BME280;41452;42.780;23.116;2023-04-25T01:58:13;93541.13;;;8.82;100.00
55590;BME280;41452;42.780;23.116;2023-04-25T02:00:39;93536.19;;;8.68;100.00
55590;BME280;41452;42.780;23.116;2023-04-25T02:03:06;93540.41;;;8.69;100.00
55590;BME280;41452;42.780;23.116;2023-04-25T02:05:38;93512.97;;;8.55;100.00
55590;BME280;41452;42.780;23.116;2023-04-25T02:08:05;93536.09;;;8.63;100.00
55590;BME280;41452;42.780;23.116;2023-04-25T02:10:31;93518.66;;;8.52;100.00
55590;BME280;41452;42.780;23.116;2023-04-25T02:12:57;93524.88;;;8.46;100.00
55590;BME280;41452;42.780;23.116;2023-04-25T02:15:23;93496.91;;;8.34;100.00
55590;BME280;41452;42.780;23.116;2023-04-25T02:17:48;93527.81;;;8.49;100.00
55590;BME280;41452;42.780;23.116;2023-04-25T02:20:14;93528.94;;;8.42;100.00
55590;BME280;41452;42.780;23.116;2023-04-25T02:22:41;93519.97;;;8.37;100.00
55590;BME280;41452;42.780;23.116;2023-04-25T02:25:08;93515.13;;;8.29;100.00
55590;BME280;41452;42.780;23.116;2023-04-25T02:27:34;93516.41;;;8.27;100.00
55590;BME280;41452;42.780;23.116;2023-04-25T02:30:00;93511.25;;;8.32;100.00
55590;BME280;41452;42.780;23.116;2023-04-25T02:32:26;93454.03;;;7.90;100.00
55590;BME280;41452;42.780;23.116;2023-04-25T02:34:52;93508.88;;;8.30;100.00
55590;BME280;41452;42.780;23.116;2023-04-25T02:37:17;93493.09;;;8.25;100.00
55590;BME280;41452;42.780;23.116;2023-04-25T02:39:42;93491.03;;;8.27;100.00
55590;BME280;41452;42.780;23.116;2023-04-25T02:42:08;93480.06;;;7.96;100.00
55590;BME280;41452;42.780;23.116;2023-04-25T02:44:33;93490.53;;;8.13;100.00
55590;BME280;41452;42.780;23.116;2023-04-25T02:46:58;93494.78;;;8.03;100.00
55590;BME280;41452;42.780;23.116;2023-04-25T02:49:24;93506.28;;;8.02;100.00
55590;BME280;41452;42.780;23.116;2023-04-25T02:51:49;93494.94;;;7.96;100.00
55590;BME280;41452;42.780;23.116;2023-04-25T02:54:14;93497.88;;;7.99;100.00
55590;BME280;41452;42.780;23.116;2023-04-25T02:56:40;93491.69;;;7.89;100.00
55590;BME280;41452;42.780;23.116;2023-04-25T02:59:05;93489.75;;;7.84;100.00
55590;BME280;41452;42.780;23.116;2023-04-25T03:01:31;93503.75;;;7.78;100.00
55590;BME280;41452;42.780;23.116;2023-04-25T03:03:56;93498.06;;;7.81;100.00
55590;BME280;41452;42.780;23.116;2023-04-25T03:06:21;93502.63;;;7.74;100.00
55590;BME280;41452;42.780;23.116;2023-04-25T03:08:47;93497.41;;;7.74;100.00
55590;BME280;41452;42.780;23.116;2023-04-25T03:11:12;93495.88;;;7.61;100.00
55590;BME280;41452;42.780;23.116;2023-04-25T03:13:37;93477.72;;;7.54;100.00
55590;BME280;41452;42.780;23.116;2023-04-25T03:16:03;93478.66;;;7.48;100.00
55590;BME280;41452;42.780;23.116;2023-04-25T03:18:28;93489.75;;;7.55;100.00
55590;BME280;41452;42.780;23.116;2023-04-25T03:20:54;93490.88;;;7.59;100.00
55590;BME280;41452;42.780;23.116;2023-04-25T03:23:19;93498.16;;;7.57;100.00
55590;BME280;41452;42.780;23.116;2023-04-25T03:25:44;93484.19;;;7.52;100.00
55590;BME280;41452;42.780;23.116;2023-04-25T03:28:10;93487.59;;;7.52;100.00
55590;BME280;41452;42.780;23.116;2023-04-25T03:30:36;93484.03;;;7.58;100.00
55590;BME280;41452;42.780;23.116;2023-04-25T03:33:01;93464.88;;;7.53;100.00
55590;BME280;41452;42.780;23.116;2023-04-25T03:35:26;93444.03;;;7.41;100.00
55590;BME280;41452;42.780;23.116;2023-04-25T03:37:52;93443.72;;;7.26;100.00
55590;BME280;41452;42.780;23.116;2023-04-25T03:40:17;93476.13;;;7.53;100.00
55590;BME280;41452;42.780;23.116;2023-04-25T03:42:42;93483.03;;;7.59;100.00
55590;BME280;41452;42.780;23.116;2023-04-25T03:45:08;93482.47;;;7.57;100.00
55590;BME280;41452;42.780;23.116;2023-04-25T03:47:33;93479.41;;;7.60;100.00
55590;BME280;41452;42.780;23.116;2023-04-25T03:49:59;93470.28;;;7.63;100.00
55590;BME280;41452;42.780;23.116;2023-04-25T03:52:26;93450.47;;;7.50;100.00
55590;BME280;41452;42.780;23.116;2023-04-25T03:54:52;93443.19;;;7.52;100.00
55590;BME280;41452;42.780;23.116;2023-04-25T03:57:17;93471.03;;;7.75;100.00
55590;BME280;41452;42.780;23.116;2023-04-25T03:59:42;93442.25;;;7.58;100.00
55590;BME280;41452;42.780;23.116;2023-04-25T04:02:08;93448.13;;;7.66;100.00
55590;BME280;41452;42.780;23.116;2023-04-25T04:04:33;93414.56;;;7.46;100.00
55590;BME280;41452;42.780;23.116;2023-04-25T04:06:58;93414.69;;;7.51;100.00
55590;BME280;41452;42.780;23.116;2023-04-25T04:09:25;93457.66;;;7.72;100.00
55590;BME280;41452;42.780;23.116;2023-04-25T04:11:50;93453.53;;;7.76;100.00
55590;BME280;41452;42.780;23.116;2023-04-25T04:14:16;93473.22;;;7.95;100.00
55590;BME280;41452;42.780;23.116;2023-04-25T04:16:41;93454.81;;;7.90;100.00
55590;BME280;41452;42.780;23.116;2023-04-25T04:19:07;93482.44;;;8.15;100.00
55590;BME280;41452;42.780;23.116;2023-04-25T04:21:32;93492.53;;;8.23;100.00
55590;BME280;41452;42.780;23.116;2023-04-25T04:23:58;93471.84;;;8.22;100.00
55590;BME280;41452;42.780;23.116;2023-04-25T04:26:25;93494.13;;;8.41;100.00
55590;BME280;41452;42.780;23.116;2023-04-25T04:28:51;93487.72;;;8.49;100.00
55590;BME280;41452;42.780;23.116;2023-04-25T04:31:17;93459.34;;;8.41;100.00
55590;BME280;41452;42.780;23.116;2023-04-25T04:33:44;93457.63;;;8.46;100.00
55590;BME280;41452;42.780;23.116;2023-04-25T04:36:10;93488.91;;;8.75;100.00
55590;BME280;41452;42.780;23.116;2023-04-25T04:38:36;93478.44;;;8.75;100.00
55590;BME280;41452;42.780;23.116;2023-04-25T04:41:01;93488.13;;;8.74;100.00
55590;BME280;41452;42.780;23.116;2023-04-25T04:43:27;93502.31;;;8.79;100.00
55590;BME280;41452;42.780;23.116;2023-04-25T04:45:53;93451.72;;;8.56;100.00
55590;BME280;41452;42.780;23.116;2023-04-25T04:48:21;93500.41;;;8.91;100.00
55590;BME280;41452;42.780;23.116;2023-04-25T04:50:47;93490.09;;;9.01;100.00
55590;BME280;41452;42.780;23.116;2023-04-25T04:53:12;93469.22;;;8.89;100.00
55590;BME280;41452;42.780;23.116;2023-04-25T04:55:38;93474.84;;;8.98;100.00
55590;BME280;41452;42.780;23.116;2023-04-25T04:58:03;93503.72;;;9.20;100.00
55590;BME280;41452;42.780;23.116;2023-04-25T05:00:29;93455.91;;;8.74;100.00
55590;BME280;41452;42.780;23.116;2023-04-25T05:02:55;93517.75;;;9.14;100.00
55590;BME280;41452;42.780;23.116;2023-04-25T05:05:20;93485.63;;;9.02;100.00
55590;BME280;41452;42.780;23.116;2023-04-25T05:07:46;93515.81;;;9.26;100.00
55590;BME280;41452;42.780;23.116;2023-04-25T05:10:11;93520.28;;;9.26;100.00
55590;BME280;41452;42.780;23.116;2023-04-25T05:12:36;93515.13;;;9.31;100.00
55590;BME280;41452;42.780;23.116;2023-04-25T05:15:02;93521.44;;;9.35;100.00
55590;BME280;41452;42.780;23.116;2023-04-25T05:17:27;93514.28;;;9.47;100.00
55590;BME280;41452;42.780;23.116;2023-04-25T05:19:53;93505.34;;;9.48;100.00
55590;BME280;41452;42.780;23.116;2023-04-25T05:22:18;93491.88;;;9.40;100.00
55590;BME280;41452;42.780;23.116;2023-04-25T05:24:43;93480.63;;;9.39;100.00
55590;BME280;41452;42.780;23.116;2023-04-25T05:27:09;93480.13;;;9.42;100.00
55590;BME280;41452;42.780;23.116;2023-04-25T05:29:34;93475.19;;;9.46;100.00
55590;BME280;41452;42.780;23.116;2023-04-25T05:32:00;93505.25;;;9.60;100.00
55590;BME280;41452;42.780;23.116;2023-04-25T05:34:25;93494.69;;;9.55;100.00
55590;BME280;41452;42.780;23.116;2023-04-25T05:36:51;93511.69;;;9.75;100.00
55590;BME280;41452;42.780;23.116;2023-04-25T05:39:16;93474.50;;;9.56;100.00
55590;BME280;41452;42.780;23.116;2023-04-25T05:41:42;93513.06;;;9.77;100.00
55590;BME280;41452;42.780;23.116;2023-04-25T05:44:08;93494.13;;;9.75;100.00
55590;BME280;41452;42.780;23.116;2023-04-25T05:46:33;93508.00;;;9.98;100.00
55590;BME280;41452;42.780;23.116;2023-04-25T05:48:59;93488.47;;;9.83;100.00
55590;BME280;41452;42.780;23.116;2023-04-25T05:51:24;93511.19;;;10.00;100.00
55590;BME280;41452;42.780;23.116;2023-04-25T05:53:49;93486.19;;;9.92;100.00
55590;BME280;41452;42.780;23.116;2023-04-25T05:56:15;93487.63;;;10.05;100.00
55590;BME280;41452;42.780;23.116;2023-04-25T05:58:40;93506.19;;;10.25;100.00
55590;BME280;41452;42.780;23.116;2023-04-25T06:01:06;93468.53;;;10.09;100.00
55590;BME280;41452;42.780;23.116;2023-04-25T06:03:31;93495.53;;;10.32;100.00
55590;BME280;41452;42.780;23.116;2023-04-25T06:05:56;93475.19;;;10.22;100.00
55590;BME280;41452;42.780;23.116;2023-04-25T06:08:22;93485.88;;;10.38;100.00
55590;BME280;41452;42.780;23.116;2023-04-25T06:10:47;93471.69;;;10.39;100.00
55590;BME280;41452;42.780;23.116;2023-04-25T06:13:13;93473.63;;;10.49;100.00
55590;BME280;41452;42.780;23.116;2023-04-25T06:15:38;93505.31;;;10.74;100.00
55590;BME280;41452;42.780;23.116;2023-04-25T06:18:03;93514.53;;;10.77;100.00
55590;BME280;41452;42.780;23.116;2023-04-25T06:20:29;93515.63;;;10.81;100.00
55590;BME280;41452;42.780;23.116;2023-04-25T06:22:54;93506.72;;;10.82;100.00
55590;BME280;41452;42.780;23.116;2023-04-25T06:25:20;93490.94;;;10.82;100.00
55590;BME280;41452;42.780;23.116;2023-04-25T06:27:46;93495.75;;;10.95;100.00
55590;BME280;41452;42.780;23.116;2023-04-25T06:30:11;93514.22;;;11.06;100.00
55590;BME280;41452;42.780;23.116;2023-04-25T06:32:39;93516.06;;;11.10;100.00
55590;BME280;41452;42.780;23.116;2023-04-25T06:35:05;93506.03;;;11.02;100.00
55590;BME280;41452;42.780;23.116;2023-04-25T06:37:31;93510.59;;;11.17;100.00
55590;BME280;41452;42.780;23.116;2023-04-25T06:39:56;93487.66;;;11.02;100.00
55590;BME280;41452;42.780;23.116;2023-04-25T06:42:21;93492.69;;;11.09;100.00
55590;BME280;41452;42.780;23.116;2023-04-25T06:44:47;93472.41;;;11.04;100.00
55590;BME280;41452;42.780;23.116;2023-04-25T06:47:13;93500.63;;;11.19;100.00
55590;BME280;41452;42.780;23.116;2023-04-25T06:49:39;93495.91;;;11.26;100.00
55590;BME280;41452;42.780;23.116;2023-04-25T06:52:04;93518.94;;;11.51;100.00
55590;BME280;41452;42.780;23.116;2023-04-25T06:54:30;93524.72;;;11.48;100.00
55590;BME280;41452;42.780;23.116;2023-04-25T06:56:56;93516.25;;;11.41;100.00
55590;BME280;41452;42.780;23.116;2023-04-25T06:59:22;93512.56;;;11.42;100.00
55590;BME280;41452;42.780;23.116;2023-04-25T07:01:47;93495.97;;;11.36;100.00
55590;BME280;41452;42.780;23.116;2023-04-25T07:04:12;93502.63;;;11.44;100.00
55590;BME280;41452;42.780;23.116;2023-04-25T07:06:38;93499.97;;;11.49;100.00
55590;BME280;41452;42.780;23.116;2023-04-25T07:09:08;93522.44;;;11.67;100.00
55590;BME280;41452;42.780;23.116;2023-04-25T07:11:35;93514.28;;;11.74;100.00
55590;BME280;41452;42.780;23.116;2023-04-25T07:14:00;93521.50;;;11.94;100.00
55590;BME280;41452;42.780;23.116;2023-04-25T07:16:26;93509.94;;;11.95;100.00
55590;BME280;41452;42.780;23.116;2023-04-25T07:18:51;93480.38;;;11.77;100.00
55590;BME280;41452;42.780;23.116;2023-04-25T07:21:17;93501.53;;;11.98;100.00
55590;BME280;41452;42.780;23.116;2023-04-25T07:23:42;93502.31;;;11.98;100.00
55590;BME280;41452;42.780;23.116;2023-04-25T07:26:07;93503.03;;;11.84;100.00
55590;BME280;41452;42.780;23.116;2023-04-25T07:28:33;93504.63;;;11.90;100.00
55590;BME280;41452;42.780;23.116;2023-04-25T07:30:58;93475.91;;;11.78;100.00
55590;BME280;41452;42.780;23.116;2023-04-25T07:33:23;93486.75;;;11.92;100.00
55590;BME280;41452;42.780;23.116;2023-04-25T07:35:49;93512.88;;;12.14;100.00
55590;BME280;41452;42.780;23.116;2023-04-25T07:38:15;93488.91;;;12.10;100.00
55590;BME280;41452;42.780;23.116;2023-04-25T07:40:41;93520.03;;;12.34;100.00
55590;BME280;41452;42.780;23.116;2023-04-25T07:43:06;93505.28;;;12.38;100.00
55590;BME280;41452;42.780;23.116;2023-04-25T07:45:31;93507.16;;;12.53;100.00
55590;BME280;41452;42.780;23.116;2023-04-25T07:47:57;93502.13;;;12.51;100.00
55590;BME280;41452;42.780;23.116;2023-04-25T07:50:22;93498.19;;;12.49;100.00
55590;BME280;41452;42.780;23.116;2023-04-25T07:52:48;93473.97;;;12.36;100.00
55590;BME280;41452;42.780;23.116;2023-04-25T07:55:13;93495.56;;;12.59;100.00
55590;BME280;41452;42.780;23.116;2023-04-25T07:57:38;93480.56;;;12.60;100.00
55590;BME280;41452;42.780;23.116;2023-04-25T08:00:04;93477.63;;;12.66;100.00
55590;BME280;41452;42.780;23.116;2023-04-25T08:02:34;93490.03;;;12.76;100.00
55590;BME280;41452;42.780;23.116;2023-04-25T08:04:59;93490.03;;;12.86;100.00
55590;BME280;41452;42.780;23.116;2023-04-25T08:07:25;93496.88;;;12.87;100.00
55590;BME280;41452;42.780;23.116;2023-04-25T08:09:50;93500.31;;;12.83;100.00
55590;BME280;41452;42.780;23.116;2023-04-25T08:12:15;93494.22;;;12.82;100.00
55590;BME280;41452;42.780;23.116;2023-04-25T08:14:41;93490.81;;;12.77;100.00
55590;BME280;41452;42.780;23.116;2023-04-25T08:17:06;93505.28;;;12.84;100.00
55590;BME280;41452;42.780;23.116;2023-04-25T08:19:32;93488.97;;;12.82;100.00
55590;BME280;41452;42.780;23.116;2023-04-25T08:21:57;93495.00;;;12.93;100.00
55590;BME280;41452;42.780;23.116;2023-04-25T08:24:23;93482.34;;;13.05;100.00
55590;BME280;41452;42.780;23.116;2023-04-25T08:26:48;93475.19;;;13.21;100.00
55590;BME280;41452;42.780;23.116;2023-04-25T08:29:14;93454.13;;;13.11;100.00
55590;BME280;41452;42.780;23.116;2023-04-25T08:31:40;93474.69;;;13.04;100.00
55590;BME280;41452;42.780;23.116;2023-04-25T08:34:05;93447.34;;;12.79;100.00
55590;BME280;41452;42.780;23.116;2023-04-25T08:36:31;93466.78;;;13.09;100.00
55590;BME280;41452;42.780;23.116;2023-04-25T08:38:56;93472.31;;;13.23;100.00
55590;BME280;41452;42.780;23.116;2023-04-25T08:41:22;93432.50;;;13.19;100.00
55590;BME280;41452;42.780;23.116;2023-04-25T08:43:49;93443.00;;;13.45;100.00
55590;BME280;41452;42.780;23.116;2023-04-25T08:46:17;93447.38;;;13.70;100.00
55590;BME280;41452;42.780;23.116;2023-04-25T08:48:45;93413.41;;;13.58;100.00
55590;BME280;41452;42.780;23.116;2023-04-25T08:51:22;93444.34;;;13.97;100.00
55590;BME280;41452;42.780;23.116;2023-04-25T08:53:53;93455.31;;;14.15;100.00
55590;BME280;41452;42.780;23.116;2023-04-25T08:56:19;93460.47;;;14.35;87.94
55590;BME280;41452;42.780;23.116;2023-04-25T08:58:50;93466.22;;;14.42;74.25
55590;BME280;41452;42.780;23.116;2023-04-25T09:01:16;93408.34;;;14.12;85.06
55590;BME280;41452;42.780;23.116;2023-04-25T09:03:42;93455.09;;;14.11;90.23
55590;BME280;41452;42.780;23.116;2023-04-25T09:06:10;93467.69;;;14.19;91.03
55590;BME280;41452;42.780;23.116;2023-04-25T09:08:37;93473.28;;;14.13;89.71
55590;BME280;41452;42.780;23.116;2023-04-25T09:11:02;93474.94;;;14.03;91.78
55590;BME280;41452;42.780;23.116;2023-04-25T09:13:28;93469.94;;;14.02;91.47
55590;BME280;41452;42.780;23.116;2023-04-25T09:15:56;93461.78;;;13.93;95.58
55590;BME280;41452;42.780;23.116;2023-04-25T09:18:29;93441.22;;;13.85;90.52
55590;BME280;41452;42.780;23.116;2023-04-25T09:20:56;93442.63;;;14.17;85.58
55590;BME280;41452;42.780;23.116;2023-04-25T09:23:22;93453.38;;;14.31;87.55
55590;BME280;41452;42.780;23.116;2023-04-25T09:25:52;93457.88;;;14.30;83.38
55590;BME280;41452;42.780;23.116;2023-04-25T09:28:26;93420.41;;;14.23;82.86
55590;BME280;41452;42.780;23.116;2023-04-25T09:30:56;93451.84;;;14.64;85.79
55590;BME280;41452;42.780;23.116;2023-04-25T09:33:29;93436.56;;;14.85;79.43
55590;BME280;41452;42.780;23.116;2023-04-25T09:36:09;93433.78;;;15.00;79.95
55590;BME280;41452;42.780;23.116;2023-04-25T09:38:54;93451.84;;;15.23;70.71
55590;BME280;41452;42.780;23.116;2023-04-25T09:41:24;93437.19;;;15.30;68.06
55590;BME280;41452;42.780;23.116;2023-04-25T09:43:49;93422.22;;;15.20;66.38
55590;BME280;41452;42.780;23.116;2023-04-25T09:46:15;93410.78;;;15.25;69.75
55590;BME280;41452;42.780;23.116;2023-04-25T09:48:49;93437.00;;;15.70;72.46
55590;BME280;41452;42.780;23.116;2023-04-25T09:51:15;93443.56;;;15.77;68.33
55590;BME280;41452;42.780;23.116;2023-04-25T09:53:42;93450.22;;;15.70;65.02
55590;BME280;41452;42.780;23.116;2023-04-25T09:56:09;93445.06;;;15.59;65.46
55590;BME280;41452;42.780;23.116;2023-04-25T09:58:36;93436.88;;;15.37;63.80
55590;BME280;41452;42.780;23.116;2023-04-25T10:01:11;93466.41;;;15.44;66.96
55590;BME280;41452;42.780;23.116;2023-04-25T10:03:38;93476.03;;;15.35;68.33
55590;BME280;41452;42.780;23.116;2023-04-25T10:06:11;93515.47;;;15.02;68.20
55590;BME280;41452;42.780;23.116;2023-04-25T10:08:38;93522.34;;;14.24;70.79
55590;BME280;41452;42.780;23.116;2023-04-25T10:11:07;93526.31;;;13.61;75.82
55590;BME280;41452;42.780;23.116;2023-04-25T10:13:34;93512.66;;;13.34;77.66
55590;BME280;41452;42.780;23.116;2023-04-25T10:16:02;93522.69;;;13.06;82.81
55590;BME280;41452;42.780;23.116;2023-04-25T10:18:29;93504.25;;;12.54;90.86
55590;BME280;41452;42.780;23.116;2023-04-25T10:20:55;93483.69;;;12.31;95.62
55590;BME280;41452;42.780;23.116;2023-04-25T10:23:21;93474.16;;;12.09;100.00
55590;BME280;41452;42.780;23.116;2023-04-25T10:25:50;93508.66;;;12.13;100.00
55590;BME280;41452;42.780;23.116;2023-04-25T10:28:16;93488.66;;;12.12;100.00
55590;BME280;41452;42.780;23.116;2023-04-25T10:31:03;93488.41;;;12.24;100.00
55590;BME280;41452;42.780;23.116;2023-04-25T10:33:32;93463.13;;;12.17;100.00
55590;BME280;41452;42.780;23.116;2023-04-25T10:35:58;93485.81;;;12.54;100.00
55590;BME280;41452;42.780;23.116;2023-04-25T10:38:25;93475.81;;;12.72;100.00
55590;BME280;41452;42.780;23.116;2023-04-25T10:41:04;93472.09;;;12.99;97.30
55590;BME280;41452;42.780;23.116;2023-04-25T10:43:39;93463.59;;;13.27;100.00
55590;BME280;41452;42.780;23.116;2023-04-25T10:46:25;93448.75;;;13.57;93.97
55590;BME280;41452;42.780;23.116;2023-04-25T10:48:56;93411.38;;;13.45;89.94
55590;BME280;41452;42.780;23.116;2023-04-25T10:56:29;93442.41;;;14.13;83.73
55590;BME280;41452;42.780;23.116;2023-04-25T10:59:05;93441.53;;;14.23;80.17
55590;BME280;41452;42.780;23.116;2023-04-25T11:01:40;93432.06;;;14.51;90.91
55590;BME280;41452;42.780;23.116;2023-04-25T11:04:06;93433.84;;;14.66;85.51
55590;BME280;41452;42.780;23.116;2023-04-25T11:09:16;93431.88;;;14.82;85.95
55590;BME280;41452;42.780;23.116;2023-04-25T11:11:41;93420.47;;;14.81;83.05
55590;BME280;41452;42.780;23.116;2023-04-25T11:14:07;93415.41;;;14.61;76.63
55590;BME280;41452;42.780;23.116;2023-04-25T11:16:32;93418.53;;;14.63;76.30
55590;BME280;41452;42.780;23.116;2023-04-25T11:18:58;93431.25;;;14.61;77.08
55590;BME280;41452;42.780;23.116;2023-04-25T11:21:25;93423.59;;;14.59;77.45
55590;BME280;41452;42.780;23.116;2023-04-25T11:23:53;93415.72;;;14.83;77.31
55590;BME280;41452;42.780;23.116;2023-04-25T11:26:19;93409.44;;;15.04;76.56
55590;BME280;41452;42.780;23.116;2023-04-25T11:28:45;93408.94;;;15.26;76.36
55590;BME280;41452;42.780;23.116;2023-04-25T11:31:12;93403.34;;;15.51;77.99
55590;BME280;41452;42.780;23.116;2023-04-25T11:33:37;93404.72;;;15.68;72.28
55590;BME280;41452;42.780;23.116;2023-04-25T11:36:03;93393.59;;;15.90;75.27
55590;BME280;41452;42.780;23.116;2023-04-25T11:38:28;93386.75;;;16.08;73.90
55590;BME280;41452;42.780;23.116;2023-04-25T11:40:54;93374.78;;;16.10;73.11
55590;BME280;41452;42.780;23.116;2023-04-25T11:43:21;93384.53;;;15.96;67.23
55590;BME280;41452;42.780;23.116;2023-04-25T11:45:48;93383.03;;;16.09;72.19
55590;BME280;41452;42.780;23.116;2023-04-25T11:48:14;93380.78;;;16.16;71.35
55590;BME280;41452;42.780;23.116;2023-04-25T11:50:40;93378.41;;;16.33;75.12
55590;BME280;41452;42.780;23.116;2023-04-25T11:53:05;93382.66;;;16.48;77.49
55590;BME280;41452;42.780;23.116;2023-04-25T11:55:31;93410.47;;;16.51;66.53
55590;BME280;41452;42.780;23.116;2023-04-25T11:57:59;93432.34;;;16.24;68.26
55590;BME280;41452;42.780;23.116;2023-04-25T12:00:25;93455.69;;;15.06;79.00
55590;BME280;41452;42.780;23.116;2023-04-25T12:02:56;93454.53;;;14.14;85.70
55590;BME280;41452;42.780;23.116;2023-04-25T12:05:28;93465.84;;;13.70;90.38
55590;BME280;41452;42.780;23.116;2023-04-25T12:07:54;93462.75;;;13.58;91.85
55590;BME280;41452;42.780;23.116;2023-04-25T12:10:19;93450.69;;;13.36;94.18
55590;BME280;41452;42.780;23.116;2023-04-25T12:12:46;93460.41;;;13.30;95.88
55590;BME280;41452;42.780;23.116;2023-04-25T12:15:13;93466.00;;;13.08;98.17
55590;BME280;41452;42.780;23.116;2023-04-25T12:17:48;93462.78;;;13.27;97.34
55590;BME280;41452;42.780;23.116;2023-04-25T12:20:17;93457.31;;;13.18;98.21
55590;BME280;41452;42.780;23.116;2023-04-25T12:22:45;93467.81;;;13.23;97.26
55590;BME280;41452;42.780;23.116;2023-04-25T12:25:13;93472.59;;;13.11;99.47
55590;BME280;41452;42.780;23.116;2023-04-25T12:27:40;93461.50;;;13.24;100.00
55590;BME280;41452;42.780;23.116;2023-04-25T12:30:08;93422.00;;;13.04;100.00
55590;BME280;41452;42.780;23.116;2023-04-25T12:32:34;93463.13;;;12.94;100.00
55590;BME280;41452;42.780;23.116;2023-04-25T12:35:00;93439.72;;;12.83;100.00
55590;BME280;41452;42.780;23.116;2023-04-25T12:37:26;93428.59;;;13.01;100.00
55590;BME280;41452;42.780;23.116;2023-04-25T12:39:52;93441.19;;;13.20;100.00
55590;BME280;41452;42.780;23.116;2023-04-25T12:42:17;93436.97;;;13.24;100.00
55590;BME280;41452;42.780;23.116;2023-04-25T12:44:42;93426.19;;;13.20;100.00
55590;BME280;41452;42.780;23.116;2023-04-25T12:47:08;93424.59;;;13.14;96.77
55590;BME280;41452;42.780;23.116;2023-04-25T12:49:34;93447.78;;;13.38;98.41